MET'MAP v2.0
soon released !

Expected late october,
this new version will be
more efficient, smarter,
and hosted on a brand new
server x3 powerfull...
...and still free !


Not compatible ?
Try the mobile version !

LOG IN : | Subscribe | Disclaimer | Who is Orbifly ? |
ICAO code :
Legend : VFR Marginal VFR IFR Intensive IFR Very Intensive IFR
Visi :
Ceiling :
>= 8 km
>= 3000ft
5 to 8 km
1000 to 3000 ft
1500m to 5 km
500 to 1000 ft
800 to 1500m
200 to 500 ft
< 800m
< 200 ft

METAR - EBCV Chièvres - 25 Feb 2020 16:57 UTC
Data Sources :     NOAA   


- Airport Elevation : 194 ft
- No reported NOTAMs.


EBCV - Chièvres

Latest METAR recorded : 2015/08/11 07:55 EBCV 110755Z AUTO 01004KT 9999 BKN008/// BKN068/// 19/16 Q1019 GRN
TAF TAF EBCV
Valid from the 25 at 13:00 until the 25 at 22:00 UTC


251141Z 2513/2522 24015KT 9999 SCT025 SCT120
TEMPO 2513/2522 24015G25KT 6000 -SHRA BKN020
PROB40
TEMPO 2513/2522 24015G30KT 3800 SHRA SHGS BKN015TCU
PROB30
TEMPO 2513/2522 24015G35KT 2000 TSRAGS SCT006 BKN012CB BY EBWM

Source NOAA


MET'MAP, your aeronautical weather chart ! - Copyright ORBIFLY December 2007

Programming & Development : Alexandra Zaïnal
Co-Developer : Marc-Olivier Méhu
Technical & hardware support : Manuel Goepfert
Concept & Financing : Baudouin d'Aumeries